createdAt,value
2022-08-14T00:00:36.844Z,87.99
2022-08-14T00:03:40.723Z,90.07
2022-08-14T00:06:42.951Z,87.51
2022-08-14T00:10:01.390Z,86.77
2022-08-14T00:13:10.366Z,88.44
2022-08-14T00:16:41.341Z,89.56
2022-08-14T00:19:36.656Z,90.78
2022-08-14T00:22:57.235Z,91.84
2022-08-14T00:26:06.792Z,92.25
2022-08-14T00:29:14.530Z,93.76
2022-08-14T00:32:52.652Z,95.55
2022-08-14T00:36:33.911Z,96.09
2022-08-14T00:38:59.265Z,96.88
2022-08-14T00:42:02.241Z,97.33
2022-08-14T00:45:06.153Z,98.20
2022-08-14T00:48:07.667Z,97.25
2022-08-14T00:51:09.867Z,97.08
2022-08-14T00:54:21.037Z,95.61
2022-08-14T00:57:28.145Z,95.04
2022-08-14T01:00:37.599Z,94.26
2022-08-14T01:03:44.851Z,95.92
2022-08-14T01:06:46.836Z,93.98
2022-08-14T01:09:58.626Z,94.88
2022-08-14T01:13:00.215Z,95.70
2022-08-14T01:16:05.645Z,97.14
2022-08-14T01:19:27.584Z,97.33
2022-08-14T01:22:29.618Z,98.12
2022-08-14T01:25:31.130Z,97.57
2022-08-14T01:28:54.183Z,97.13
2022-08-14T01:32:00.345Z,97.54
2022-08-14T01:35:17.636Z,98.53
2022-08-14T01:38:24.116Z,99.00
2022-08-14T01:41:30.175Z,100.00
2022-08-14T01:44:34.544Z,99.12
2022-08-14T01:47:37.144Z,99.49
2022-08-14T01:50:39.308Z,99.80
2022-08-14T01:53:47.883Z,100.00
2022-08-14T01:56:56.863Z,100.00
2022-08-14T01:59:58.773Z,100.00
2022-08-14T02:03:00.444Z,100.00
2022-08-14T02:06:04.153Z,100.00
2022-08-14T02:09:24.227Z,100.00
2022-08-14T02:12:29.234Z,100.00
2022-08-14T02:15:31.045Z,100.00
2022-08-14T02:18:33.428Z,100.00
2022-08-14T02:21:43.346Z,100.00
2022-08-14T02:24:47.867Z,100.00
2022-08-14T02:28:24.521Z,100.00
2022-08-14T02:31:14.886Z,100.00
2022-08-14T02:34:22.285Z,100.00
2022-08-14T02:37:46.438Z,100.00
2022-08-14T02:40:49.222Z,100.00
2022-08-14T02:43:51.256Z,100.00
2022-08-14T02:46:53.886Z,100.00
2022-08-14T02:50:03.460Z,100.00
2022-08-14T02:53:05.825Z,100.00
2022-08-14T02:56:30.770Z,100.00
2022-08-14T02:59:33.655Z,100.00
2022-08-14T03:02:56.363Z,100.00
2022-08-14T03:05:57.783Z,100.00
2022-08-14T03:08:59.924Z,100.00
2022-08-14T03:12:02.565Z,100.00
2022-08-14T03:15:16.275Z,100.00
2022-08-14T03:18:31.907Z,100.00
2022-08-14T03:21:34.473Z,100.00
2022-08-14T03:24:36.681Z,100.00
2022-08-14T03:27:48.431Z,100.00
2022-08-14T03:31:00.481Z,100.00
2022-08-14T03:34:03.214Z,100.00
2022-08-14T03:37:39.185Z,100.00
2022-08-14T03:40:26.691Z,100.00
2022-08-14T03:43:32.611Z,100.00
2022-08-14T03:46:52.405Z,100.00
2022-08-14T03:49:56.422Z,100.00
2022-08-14T03:53:01.536Z,100.00
2022-08-14T03:56:04.709Z,100.00
2022-08-14T03:59:17.851Z,100.00
2022-08-14T04:02:37.227Z,100.00
2022-08-14T04:05:43.387Z,100.00
2022-08-14T04:08:52.333Z,100.00
2022-08-14T04:11:54.396Z,100.00
2022-08-14T04:14:58.438Z,100.00
2022-08-14T04:18:05.715Z,100.00
2022-08-14T04:21:10.307Z,100.00
2022-08-14T04:24:14.369Z,100.00
2022-08-14T04:27:19.186Z,100.00
2022-08-14T04:30:24.185Z,100.00
2022-08-14T04:33:33.109Z,100.00
2022-08-14T04:36:55.019Z,100.00
2022-08-14T04:40:15.360Z,100.00
2022-08-14T04:43:38.487Z,100.00
2022-08-14T04:46:56.789Z,100.00
2022-08-14T04:49:59.261Z,100.00
2022-08-14T04:53:04.888Z,100.00
2022-08-14T04:56:30.065Z,100.00
2022-08-14T04:59:28.315Z,100.00
2022-08-14T05:02:31.541Z,100.00
2022-08-14T05:05:36.198Z,100.00
2022-08-14T05:08:56.951Z,100.00
2022-08-14T05:13:12.906Z,100.00
2022-08-14T05:15:22.562Z,100.00
2022-08-14T05:18:37.157Z,100.00
2022-08-14T05:21:57.783Z,100.00
2022-08-14T05:25:04.120Z,100.00
2022-08-14T05:28:21.749Z,100.00
2022-08-14T05:31:24.103Z,100.00
2022-08-14T05:34:41.014Z,100.00
2022-08-14T05:37:47.417Z,100.00
2022-08-14T05:40:49.372Z,100.00
2022-08-14T05:43:51.339Z,100.00
2022-08-14T05:46:52.859Z,100.00
2022-08-14T05:49:59.672Z,100.00
2022-08-14T05:53:01.416Z,100.00
2022-08-14T05:56:03.369Z,100.00
2022-08-14T05:59:05.604Z,100.00
2022-08-14T06:02:10.010Z,100.00
2022-08-14T06:05:12.158Z,100.00
2022-08-14T06:08:31.391Z,99.50
2022-08-14T06:11:38.081Z,95.96
2022-08-14T06:14:39.588Z,96.19
2022-08-14T06:17:46.359Z,94.92
2022-08-14T06:20:57.320Z,95.00
2022-08-14T06:23:59.540Z,91.82
2022-08-14T06:27:04.267Z,91.56
2022-08-14T06:30:08.237Z,89.25
2022-08-14T06:33:12.953Z,87.90
2022-08-14T06:36:20.325Z,87.35
2022-08-14T06:39:36.648Z,84.86
2022-08-14T06:42:39.923Z,83.74
2022-08-14T06:45:43.573Z,84.91
2022-08-14T06:48:52.216Z,84.83
2022-08-14T06:51:56.752Z,84.79
2022-08-14T06:54:58.336Z,84.71
2022-08-14T06:58:00.752Z,83.99
2022-08-14T07:01:27.734Z,81.96
2022-08-14T07:04:48.170Z,78.82
2022-08-14T07:07:49.674Z,72.51
2022-08-14T07:10:54.280Z,62.89
2022-08-14T07:13:57.761Z,54.80
2022-08-14T07:16:59.237Z,51.78
2022-08-14T07:20:02.851Z,48.84
2022-08-14T07:23:08.553Z,46.65
2022-08-14T07:26:10.998Z,44.94
2022-08-14T07:29:14.911Z,43.63
2022-08-14T07:32:22.220Z,42.96
2022-08-14T07:35:42.803Z,40.25
2022-08-14T07:38:58.132Z,41.85
2022-08-14T07:41:59.665Z,40.63
2022-08-14T07:45:03.523Z,40.30
2022-08-14T07:48:06.247Z,39.88
2022-08-14T07:51:11.432Z,38.79
2022-08-14T07:54:16.374Z,38.39
2022-08-14T07:57:22.471Z,37.97
2022-08-14T08:00:31.263Z,37.41
2022-08-14T08:03:35.909Z,36.96
2022-08-14T08:06:38.244Z,37.04
2022-08-14T08:09:47.440Z,36.48
2022-08-14T08:12:55.539Z,36.91
2022-08-14T08:15:57.644Z,35.35
2022-08-14T08:19:05.464Z,34.79
2022-08-14T08:22:14.860Z,33.88
2022-08-14T08:25:18.022Z,33.24
2022-08-14T08:28:25.167Z,33.23
2022-08-14T08:31:32.670Z,32.84
2022-08-14T08:34:45.456Z,32.58
2022-08-14T08:37:48.308Z,32.29
2022-08-14T08:40:56.889Z,32.02
2022-08-14T08:44:05.536Z,31.90
2022-08-14T08:47:08.078Z,31.22
2022-08-14T08:53:38.802Z,31.30
2022-08-14T08:56:48.099Z,31.00
2022-08-14T08:59:55.169Z,29.90
2022-08-14T09:03:03.188Z,29.21
2022-08-14T09:06:53.988Z,29.34
2022-08-14T09:09:33.221Z,28.10
2022-08-14T09:12:51.665Z,27.65
2022-08-14T09:15:54.044Z,27.69
2022-08-14T09:18:56.690Z,26.70
2022-08-14T09:21:59.047Z,26.59
2022-08-14T09:25:00.555Z,27.30
2022-08-14T09:28:03.251Z,27.94
2022-08-14T09:31:11.940Z,27.10
2022-08-14T09:34:39.461Z,26.27
2022-08-14T09:38:15.424Z,25.69
2022-08-14T09:41:27.052Z,25.18
2022-08-14T09:44:57.425Z,24.83
2022-08-14T09:48:01.863Z,24.45
2022-08-14T09:54:19.693Z,25.13
2022-08-14T09:57:27.625Z,25.22
2022-08-14T10:00:52.770Z,24.19
2022-08-14T10:03:56.292Z,25.19
2022-08-14T10:07:01.279Z,24.44
2022-08-14T10:10:03.884Z,24.11
2022-08-14T10:13:25.514Z,24.38
2022-08-14T10:16:33.264Z,23.30
2022-08-14T10:19:36.511Z,23.42
2022-08-14T10:23:21.694Z,22.86
2022-08-14T10:26:05.337Z,23.23
2022-08-14T10:29:20.275Z,23.81
2022-08-14T10:32:29.207Z,22.67
2022-08-14T10:35:47.823Z,23.23
2022-08-14T10:38:56.549Z,22.68
2022-08-14T10:42:16.501Z,22.48
2022-08-14T10:45:21.893Z,22.82
2022-08-14T10:48:37.107Z,21.07
2022-08-14T10:51:43.601Z,21.97
2022-08-14T10:54:47.402Z,21.95
2022-08-14T10:57:50.567Z,21.42
2022-08-14T11:00:57.830Z,22.10
2022-08-14T11:03:59.453Z,21.13
2022-08-14T11:07:01.386Z,21.53
2022-08-14T11:10:09.317Z,20.01
2022-08-14T11:13:17.429Z,19.86
2022-08-14T11:16:19.621Z,20.23
2022-08-14T11:19:21.734Z,19.82
2022-08-14T11:22:56.153Z,19.60
2022-08-14T11:25:52.901Z,19.81
2022-08-14T11:28:56.784Z,19.94
2022-08-14T11:32:01.450Z,20.14
2022-08-14T11:35:03.832Z,20.92
2022-08-14T11:38:07.411Z,24.37
2022-08-14T11:41:09.655Z,25.51
2022-08-14T11:44:17.531Z,26.38
2022-08-14T11:47:22.728Z,25.98
2022-08-14T11:50:37.357Z,25.38
2022-08-14T11:53:42.278Z,25.74
2022-08-14T11:56:45.665Z,25.38
2022-08-14T11:59:47.819Z,25.28
2022-08-14T12:03:02.735Z,25.75
2022-08-14T12:06:29.439Z,24.94
2022-08-14T12:09:33.628Z,24.86
2022-08-14T12:12:36.644Z,24.35
2022-08-14T12:15:38.185Z,24.29
2022-08-14T12:18:48.492Z,23.88
2022-08-14T12:21:51.754Z,23.08
2022-08-14T12:24:55.203Z,23.79
2022-08-14T12:27:59.168Z,23.44
2022-08-14T12:31:01.329Z,23.14
2022-08-14T12:34:10.268Z,22.95
2022-08-14T12:37:11.993Z,23.10
2022-08-14T12:40:14.281Z,23.13
2022-08-14T12:43:21.756Z,22.70
2022-08-14T12:46:35.230Z,22.10
2022-08-14T12:49:37.388Z,24.22
2022-08-14T12:52:53.940Z,23.57
2022-08-14T12:56:22.417Z,23.65
2022-08-14T12:59:29.790Z,24.33
2022-08-14T13:02:37.448Z,23.86
2022-08-14T13:05:38.993Z,24.10
2022-08-14T13:08:52.672Z,24.03
2022-08-14T13:11:58.782Z,24.26
2022-08-14T13:15:17.854Z,25.33
2022-08-14T13:18:21.064Z,25.97
2022-08-14T13:21:26.326Z,25.75
2022-08-14T13:24:28.093Z,26.34
2022-08-14T13:27:29.604Z,26.00
2022-08-14T13:30:33.804Z,25.65
2022-08-14T13:33:35.868Z,26.02
2022-08-14T13:36:54.899Z,26.13
2022-08-14T13:39:58.998Z,26.44
2022-08-14T13:43:02.180Z,26.10
2022-08-14T13:46:03.859Z,26.70
2022-08-14T13:49:12.156Z,26.69
2022-08-14T13:52:52.766Z,26.72
2022-08-14T13:55:42.403Z,27.15
2022-08-14T13:58:46.869Z,27.16
2022-08-14T14:01:51.655Z,26.97
2022-08-14T14:04:53.577Z,27.55
2022-08-14T14:07:57.176Z,27.70
2022-08-14T14:10:58.841Z,27.87
2022-08-14T14:14:01.463Z,27.58
2022-08-14T14:17:03.381Z,28.10
2022-08-14T14:20:15.263Z,27.83
2022-08-14T14:23:34.896Z,26.73
2022-08-14T14:26:36.692Z,27.71
2022-08-14T14:29:43.253Z,25.98
2022-08-14T14:33:01.926Z,25.82
2022-08-14T14:36:06.293Z,26.01
2022-08-14T14:39:08.851Z,26.20
2022-08-14T14:42:13.558Z,26.22
2022-08-14T14:45:20.869Z,26.63
2022-08-14T14:48:23.396Z,26.43
2022-08-14T14:51:29.984Z,26.27
2022-08-14T14:54:37.416Z,27.88
2022-08-14T14:57:40.987Z,28.14
2022-08-14T15:00:46.187Z,29.46
2022-08-14T15:03:48.080Z,28.38
2022-08-14T15:06:54.071Z,27.85
2022-08-14T15:09:55.599Z,28.08
2022-08-14T15:13:03.780Z,29.36
2022-08-14T15:16:07.711Z,28.67
2022-08-14T15:19:12.440Z,29.06
2022-08-14T15:22:16.284Z,28.56
2022-08-14T15:25:18.628Z,28.60
2022-08-14T15:28:21.774Z,28.72
2022-08-14T15:31:24.640Z,29.46
2022-08-14T15:34:43.498Z,30.22
2022-08-14T15:37:55.717Z,29.67
2022-08-14T15:41:01.867Z,31.42
2022-08-14T15:44:03.626Z,32.43
2022-08-14T15:47:09.407Z,32.63
2022-08-14T15:50:12.809Z,32.77
2022-08-14T15:53:14.786Z,32.54
2022-08-14T15:56:32.844Z,33.05
2022-08-14T15:59:56.887Z,32.67
2022-08-14T16:03:00.378Z,32.53
2022-08-14T16:06:05.066Z,32.12
2022-08-14T16:09:11.101Z,32.80
2022-08-14T16:12:12.870Z,32.98
2022-08-14T16:15:16.751Z,32.66
2022-08-14T16:18:20.034Z,32.52
2022-08-14T16:21:21.715Z,32.66
2022-08-14T16:24:28.120Z,32.34
2022-08-14T16:27:38.778Z,33.19
2022-08-14T16:30:51.439Z,33.06
2022-08-14T16:34:00.076Z,34.03
2022-08-14T16:37:03.213Z,34.50
2022-08-14T16:40:05.032Z,35.23
2022-08-14T16:43:13.073Z,35.19
2022-08-14T16:46:18.375Z,35.69
2022-08-14T16:49:26.045Z,35.82
2022-08-14T16:52:54.694Z,36.81
2022-08-14T16:56:17.052Z,37.55
2022-08-14T16:59:30.648Z,38.88
2022-08-14T17:02:46.442Z,39.89
2022-08-14T17:05:49.262Z,40.18
2022-08-14T17:08:50.849Z,40.72
2022-08-14T17:11:58.223Z,41.08
2022-08-14T17:15:14.811Z,40.82
2022-08-14T17:18:41.297Z,41.44
2022-08-14T17:21:47.141Z,41.61
2022-08-14T17:24:58.202Z,42.09
2022-08-14T17:28:52.161Z,41.68
2022-08-14T17:31:58.304Z,47.23
2022-08-14T17:34:54.117Z,44.67
2022-08-14T17:37:57.069Z,44.41
2022-08-14T17:41:18.502Z,43.91
2022-08-14T17:44:33.907Z,44.21
2022-08-14T17:47:46.518Z,43.92
2022-08-14T17:50:58.480Z,43.57
2022-08-14T17:54:04.216Z,44.04
2022-08-14T17:57:14.920Z,44.63
2022-08-14T18:00:17.479Z,44.18
2022-08-14T18:03:50.420Z,45.53
2022-08-14T18:06:58.576Z,44.15
2022-08-14T18:10:51.792Z,45.63
2022-08-14T18:13:52.058Z,47.60
2022-08-14T18:16:51.036Z,45.70
2022-08-14T18:19:52.604Z,47.04
2022-08-14T18:22:54.108Z,46.16
2022-08-14T18:25:56.178Z,46.81
2022-08-14T18:28:59.197Z,47.05
2022-08-14T18:32:00.741Z,47.29
2022-08-14T18:35:03.820Z,47.04
2022-08-14T18:38:25.349Z,47.73
2022-08-14T18:41:37.154Z,47.98
2022-08-14T18:44:54.499Z,47.92
2022-08-14T18:48:18.753Z,48.91
2022-08-14T18:51:25.695Z,48.94
2022-08-14T18:54:48.636Z,49.77
2022-08-14T18:58:00.901Z,51.04
2022-08-14T19:01:04.621Z,51.54
2022-08-14T19:04:08.289Z,53.84
2022-08-14T19:07:16.766Z,55.13
2022-08-14T19:10:31.794Z,55.66
2022-08-14T19:13:48.772Z,57.34
2022-08-14T19:16:53.754Z,56.96
2022-08-14T19:20:07.160Z,56.12
2022-08-14T19:23:21.935Z,57.59
2022-08-14T19:26:35.252Z,60.89
2022-08-14T19:29:39.907Z,64.92
2022-08-14T19:32:41.629Z,66.23
2022-08-14T19:35:55.372Z,73.81
2022-08-14T19:39:01.914Z,83.12
2022-08-14T19:42:10.330Z,86.35
2022-08-14T19:45:14.336Z,90.87
2022-08-14T19:48:16.160Z,92.38
2022-08-14T19:51:17.689Z,92.34
2022-08-14T19:54:19.061Z,89.09
2022-08-14T19:57:22.616Z,88.70
2022-08-14T20:00:29.530Z,88.64
2022-08-14T20:04:00.548Z,90.87
2022-08-14T20:07:08.836Z,90.43
2022-08-14T20:11:03.174Z,91.99
2022-08-14T20:14:10.552Z,94.97
2022-08-14T20:17:15.148Z,97.03
2022-08-14T20:20:30.925Z,99.46
2022-08-14T20:23:38.094Z,100.00
2022-08-14T20:26:46.888Z,99.66
2022-08-14T20:30:34.689Z,100.00
2022-08-14T20:33:47.684Z,100.00
2022-08-14T20:36:49.651Z,100.00
2022-08-14T20:39:54.419Z,100.00
2022-08-14T20:43:15.163Z,100.00
2022-08-14T20:46:18.036Z,99.76
2022-08-14T20:49:27.755Z,99.62
2022-08-14T20:52:29.231Z,99.42
2022-08-14T20:55:36.450Z,99.98
2022-08-14T20:58:45.837Z,100.00
2022-08-14T21:02:00.431Z,100.00
2022-08-14T21:05:22.545Z,100.00
2022-08-14T21:08:37.096Z,100.00
2022-08-14T21:11:40.162Z,99.80
2022-08-14T21:14:51.839Z,98.28
2022-08-14T21:17:56.048Z,96.16
2022-08-14T21:20:58.194Z,96.83
2022-08-14T21:24:00.391Z,98.71
2022-08-14T21:27:13.111Z,100.00
2022-08-14T21:30:46.898Z,100.00
2022-08-14T21:33:47.012Z,100.00
2022-08-14T21:36:58.572Z,100.00
2022-08-14T21:40:00.568Z,100.00
2022-08-14T21:43:02.171Z,100.00
2022-08-14T21:46:03.665Z,100.00
2022-08-14T21:49:20.562Z,100.00
2022-08-14T21:52:49.559Z,100.00
2022-08-14T21:55:43.650Z,100.00
2022-08-14T21:58:52.612Z,100.00
2022-08-14T22:02:00.195Z,100.00
2022-08-14T22:05:05.391Z,100.00
2022-08-14T22:08:12.460Z,100.00
2022-08-14T22:11:15.548Z,100.00
2022-08-14T22:14:25.439Z,100.00
2022-08-14T22:17:32.386Z,100.00
2022-08-14T22:20:36.287Z,100.00
2022-08-14T22:23:37.914Z,100.00
2022-08-14T22:26:43.064Z,100.00
2022-08-14T22:29:46.533Z,100.00
2022-08-14T22:32:58.419Z,100.00
2022-08-14T22:36:02.008Z,100.00
2022-08-14T22:39:10.824Z,100.00
2022-08-14T22:42:19.528Z,100.00
2022-08-14T22:45:23.978Z,100.00
2022-08-14T22:48:25.465Z,100.00
2022-08-14T22:51:30.935Z,100.00
2022-08-14T22:54:52.520Z,100.00
2022-08-14T22:57:55.135Z,100.00
2022-08-14T23:00:56.632Z,100.00
2022-08-14T23:03:59.129Z,100.00
2022-08-14T23:07:04.804Z,100.00
2022-08-14T23:10:32.639Z,100.00
2022-08-14T23:13:30.592Z,100.00
2022-08-14T23:16:32.842Z,100.00
2022-08-14T23:19:34.972Z,100.00
2022-08-14T23:22:36.827Z,100.00
2022-08-14T23:25:59.573Z,100.00
2022-08-14T23:29:06.951Z,100.00
2022-08-14T23:32:15.554Z,100.00
2022-08-14T23:35:24.012Z,100.00
2022-08-14T23:38:30.805Z,100.00
2022-08-14T23:41:46.848Z,100.00
2022-08-14T23:44:55.601Z,100.00
2022-08-14T23:47:58.877Z,100.00
2022-08-14T23:51:02.387Z,100.00
2022-08-14T23:54:03.989Z,98.11
2022-08-14T23:57:05.510Z,97.43
